Markleton, Pennsylvania
Current Conditions -  °F | °C
As of 1:55 PM on Thursday 30 Oct 2014 (Local Time) from K2G4 Reporting Station
Overcast Overcast  
Wind Chill: 36°   Ceiling: 2600
Heat Index: 39°   Visibility: 10mi
Dew Point: 36°   Wind: 5mph
Humidity: 87%   Direction: 350°N
Pressure: 30.04"   Gusts: NA
Location:  39.86°N, 79.23°W
Report Text: K2G4 301755Z AUTO 35004KT 10SM OVC026 04/02 A3004 RMK AO1
Loading
Personal Weather Stations






























Interactive Weather Map
Tropical Storm Tracking
New forecast layout! Learn more

10-Day Weather Forecast

Advertisements
Track Severe Weather on mobile